Time,TemperatureF,DewpointF,PressureIn,WindDirection,WindDirectionDegrees,WindSpeedMPH,WindSpeedGustMPH,Humidity,HourlyPrecipIn,Conditions,Clouds,dailyrainin,SoftwareType,DateUTC
2013-02-01 00:00:00,34.4,21.6,29.94,NE,36,0.0,0.0,59,0.00,,---,0.00,VWS V14.01,2013-02-01 05:00:00,
2013-02-01 00:01:00,34.3,21.5,29.94,NE,36,0.0,0.0,59,0.00,,---,0.00,VWS V14.01,2013-02-01 05:01:00,
2013-02-01 00:06:00,34.1,21.3,29.94,NE,37,0.0,0.0,59,0.00,,---,0.00,VWS V14.01,2013-02-01 05:06:00,
2013-02-01 00:11:00,34.1,22.1,29.94,NE,36,0.0,0.0,61,0.00,,---,0.00,VWS V14.01,2013-02-01 05:11:00,
2013-02-01 00:16:00,34.0,22.4,29.94,NE,37,0.0,0.0,62,0.00,,---,0.00,VWS V14.01,2013-02-01 05:16:00,
2013-02-01 00:21:00,34.0,22.4,29.94,NE,37,0.0,0.0,62,0.00,,---,0.00,VWS V14.01,2013-02-01 05:21:00,
2013-02-01 00:26:00,34.1,22.5,29.94,NE,37,0.0,0.0,62,0.00,,---,0.00,VWS V14.01,2013-02-01 05:26:00,
2013-02-01 00:30:00,35.0,21.7,29.93,NE,36,0.0,0.0,58,0.00,,---,0.00,VWS V14.01,2013-02-01 05:30:00,
2013-02-01 00:31:00,34.1,22.1,29.93,NE,36,0.0,0.0,61,0.00,,---,0.00,VWS V14.01,2013-02-01 05:31:00,
2013-02-01 00:36:00,34.1,22.1,29.93,NE,36,0.0,0.0,61,0.00,,---,0.00,VWS V14.01,2013-02-01 05:36:00,
2013-02-01 00:41:00,34.1,21.7,29.93,NE,36,0.0,0.0,60,0.00,,---,0.00,VWS V14.01,2013-02-01 05:41:00,
2013-02-01 00:46:00,34.1,21.3,29.93,NE,36,0.0,0.0,59,0.00,,---,0.00,VWS V14.01,2013-02-01 05:46:00,
2013-02-01 00:51:00,34.3,21.9,29.93,NE,36,0.0,0.0,60,0.00,,---,0.00,VWS V14.01,2013-02-01 05:51:00,
2013-02-01 00:56:00,34.3,21.9,29.93,NE,36,0.0,0.0,60,0.00,,---,0.00,VWS V14.01,2013-02-01 05:56:00,
2013-02-01 01:00:00,34.0,22.4,29.94,NE,37,0.0,0.0,62,0.00,,---,0.00,VWS V14.01,2013-02-01 06:00:00,
2013-02-01 01:01:00,34.3,22.3,29.92,NE,37,0.0,0.0,61,0.00,,---,0.00,VWS V14.01,2013-02-01 06:01:00,
2013-02-01 01:06:00,34.4,22.0,29.92,NE,37,0.0,0.0,60,0.00,,---,0.00,VWS V14.01,2013-02-01 06:06:00,
2013-02-01 01:11:00,34.6,21.8,29.92,NE,36,0.0,4.0,59,0.00,,---,0.00,VWS V14.01,2013-02-01 06:11:00,
2013-02-01 01:16:00,34.9,21.6,29.91,NNE,26,0.0,0.0,58,0.00,,---,0.00,VWS V14.01,2013-02-01 06:16:00,
2013-02-01 01:21:00,35.0,21.7,29.91,NNE,26,0.0,0.0,58,0.00,,---,0.00,VWS V14.01,2013-02-01 06:21:00,
2013-02-01 01:26:00,35.3,21.6,29.91,NNW,334,0.0,6.0,57,0.00,,---,0.00,VWS V14.01,2013-02-01 06:26:00,
2013-02-01 01:30:00,34.1,21.7,29.93,NE,36,0.0,0.0,60,0.00,,---,0.00,VWS V14.01,2013-02-01 06:30:00,
2013-02-01 01:31:00,35.5,21.8,29.92,NNW,334,2.0,6.0,57,0.00,,---,0.00,VWS V14.01,2013-02-01 06:31:00,
2013-02-01 01:36:00,35.6,21.9,29.92,NNW,329,0.0,6.0,57,0.00,,---,0.00,VWS V14.01,2013-02-01 06:36:00,
2013-02-01 01:41:00,35.8,22.1,29.92,NNW,329,0.0,6.0,57,0.00,,---,0.00,VWS V14.01,2013-02-01 06:41:00,
2013-02-01 01:46:00,35.8,22.1,29.92,North,355,0.0,4.0,57,0.00,,---,0.00,VWS V14.01,2013-02-01 06:46:00,
2013-02-01 01:51:00,35.8,22.5,29.92,North,355,3.0,4.0,58,0.00,,---,0.00,VWS V14.01,2013-02-01 06:51:00,
2013-02-01 01:56:00,35.9,22.2,29.92,North,355,0.0,4.0,57,0.00,,---,0.00,VWS V14.01,2013-02-01 06:56:00,
2013-02-01 02:00:00,34.7,21.5,29.91,NNE,26,0.0,5.0,58,0.00,,---,0.00,VWS V14.01,2013-02-01 07:00:00,
2013-02-01 02:01:00,35.9,22.6,29.91,North,355,1.0,4.0,58,0.00,,---,0.00,VWS V14.01,2013-02-01 07:01:00,
2013-02-01 02:06:00,36.0,22.3,29.91,North,355,2.0,5.0,57,0.00,,---,0.00,VWS V14.01,2013-02-01 07:06:00,
2013-02-01 02:11:00,36.3,22.5,29.91,NNW,329,0.0,5.0,57,0.00,,---,0.00,VWS V14.01,2013-02-01 07:11:00,
2013-02-01 02:16:00,36.8,22.6,29.90,NNW,327,0.0,0.0,56,0.00,,---,0.00,VWS V14.01,2013-02-01 07:16:00,
2013-02-01 02:21:00,37.0,22.8,29.90,NNW,336,0.0,0.0,56,0.00,,---,0.00,VWS V14.01,2013-02-01 07:21:00,
2013-02-01 02:26:00,37.6,22.9,29.90,NW,321,0.0,0.0,55,0.00,,---,0.00,VWS V14.01,2013-02-01 07:26:00,
2013-02-01 02:30:00,35.8,22.5,29.92,North,355,4.0,6.0,58,0.00,,---,0.00,VWS V14.01,2013-02-01 07:30:00,
2013-02-01 02:31:00,38.2,23.0,29.90,NW,319,0.0,0.0,54,0.00,,---,0.00,VWS V14.01,2013-02-01 07:31:00,
2013-02-01 02:36:00,38.5,23.3,29.90,NW,318,0.0,0.0,54,0.00,,---,0.00,VWS V14.01,2013-02-01 07:36:00,
2013-02-01 02:41:00,38.5,23.3,29.90,NNW,344,0.0,0.0,54,0.00,,---,0.00,VWS V14.01,2013-02-01 07:41:00,
2013-02-01 02:46:00,38.6,23.4,29.88,NNW,338,0.0,0.0,54,0.00,,---,0.00,VWS V14.01,2013-02-01 07:46:00,
2013-02-01 02:51:00,38.8,23.6,29.88,NNW,334,0.0,0.0,54,0.00,,---,0.00,VWS V14.01,2013-02-01 07:51:00,
2013-02-01 02:56:00,38.8,23.6,29.88,NNW,343,0.0,0.0,54,0.00,,---,0.00,VWS V14.01,2013-02-01 07:56:00,
2013-02-01 03:00:00,36.5,22.7,29.90,NNW,341,0.0,5.0,57,0.00,,---,0.00,VWS V14.01,2013-02-01 08:00:00,
2013-02-01 03:01:00,38.9,23.7,29.87,NW,320,0.0,0.0,54,0.00,,---,0.00,VWS V14.01,2013-02-01 08:01:00,
2013-02-01 03:06:00,38.9,23.7,29.87,North,360,0.0,0.0,54,0.00,,---,0.00,VWS V14.01,2013-02-01 08:06:00,
2013-02-01 03:11:00,38.9,23.7,29.87,NNW,346,0.0,0.0,54,0.00,,---,0.00,VWS V14.01,2013-02-01 08:11:00,
2013-02-01 03:16:00,39.1,23.9,29.86,North,360,0.0,0.0,54,0.00,,---,0.00,VWS V14.01,2013-02-01 08:16:00,
2013-02-01 03:21:00,39.1,23.9,29.86,NW,318,0.0,0.0,54,0.00,,---,0.00,VWS V14.01,2013-02-01 08:21:00,
2013-02-01 03:26:00,39.1,23.9,29.86,NNW,331,0.0,0.0,54,0.00,,---,0.00,VWS V14.01,2013-02-01 08:26:00,
2013-02-01 03:30:00,38.6,23.4,29.88,NNW,348,0.0,0.0,54,0.00,,---,0.00,VWS V14.01,2013-02-01 08:30:00,
2013-02-01 03:31:00,39.2,24.0,29.85,NW,315,0.0,0.0,54,0.00,,---,0.00,VWS V14.01,2013-02-01 08:31:00,
2013-02-01 03:36:00,39.2,24.0,29.85,North,5,0.0,0.0,54,0.00,,---,0.00,VWS V14.01,2013-02-01 08:36:00,
2013-02-01 03:41:00,39.1,24.3,29.85,NNW,329,0.0,0.0,55,0.00,,---,0.00,VWS V14.01,2013-02-01 08:41:00,
2013-02-01 03:46:00,39.1,24.3,29.85,NNW,343,0.0,0.0,55,0.00,,---,0.00,VWS V14.01,2013-02-01 08:46:00,
2013-02-01 03:51:00,39.1,24.3,29.85,North,9,0.0,0.0,55,0.00,,---,0.00,VWS V14.01,2013-02-01 08:51:00,
2013-02-01 03:56:00,39.2,24.4,29.85,NNW,340,0.0,0.0,55,0.00,,---,0.00,VWS V14.01,2013-02-01 08:56:00,
2013-02-01 04:00:00,38.9,23.7,29.86,NW,323,0.0,0.0,54,0.00,,---,0.00,VWS V14.01,2013-02-01 09:00:00,
2013-02-01 04:01:00,39.3,24.1,29.85,NNW,333,0.0,0.0,54,0.00,,---,0.00,VWS V14.01,2013-02-01 09:01:00,
2013-02-01 04:06:00,39.5,24.2,29.85,NNW,338,0.0,0.0,54,0.00,,---,0.00,VWS V14.01,2013-02-01 09:06:00,
2013-02-01 04:11:00,39.8,24.1,29.85,NW,321,0.0,0.0,53,0.00,,---,0.00,VWS V14.01,2013-02-01 09:11:00,
2013-02-01 04:16:00,39.9,24.2,29.84,NNW,327,0.0,0.0,53,0.00,,---,0.00,VWS V14.01,2013-02-01 09:16:00,
2013-02-01 04:21:00,40.1,24.4,29.84,NNW,332,0.0,0.0,53,0.00,,---,0.00,VWS V14.01,2013-02-01 09:21:00,
2013-02-01 04:26:00,40.2,24.5,29.84,NNW,336,0.0,0.0,53,0.00,,---,0.00,VWS V14.01,2013-02-01 09:26:00,
2013-02-01 04:30:00,39.1,24.3,29.85,North,355,0.0,0.0,55,0.00,,---,0.00,VWS V14.01,2013-02-01 09:30:00,
2013-02-01 04:31:00,40.2,24.5,29.82,NW,326,0.0,0.0,53,0.00,,---,0.00,VWS V14.01,2013-02-01 09:31:00,
2013-02-01 04:36:00,40.2,24.5,29.82,NNE,14,0.0,0.0,53,0.00,,---,0.00,VWS V14.01,2013-02-01 09:36:00,
2013-02-01 04:41:00,40.2,24.5,29.82,NW,305,0.0,0.0,53,0.00,,---,0.00,VWS V14.01,2013-02-01 09:41:00,
2013-02-01 04:46:00,40.2,24.5,29.81,NNW,342,0.0,0.0,53,0.00,,---,0.00,VWS V14.01,2013-02-01 09:46:00,
2013-02-01 04:51:00,40.3,24.5,29.81,North,11,0.0,0.0,53,0.00,,---,0.00,VWS V14.01,2013-02-01 09:51:00,
2013-02-01 04:56:00,40.3,24.5,29.81,NNW,342,0.0,0.0,53,0.00,,---,0.00,VWS V14.01,2013-02-01 09:56:00,
2013-02-01 05:00:00,39.8,24.5,29.84,North,350,0.0,0.0,54,0.00,,---,0.00,VWS V14.01,2013-02-01 10:00:00,
2013-02-01 05:01:00,40.3,24.5,29.81,NW,321,0.0,0.0,53,0.00,,---,0.00,VWS V14.01,2013-02-01 10:01:00,
2013-02-01 05:06:00,40.5,24.7,29.81,NNW,346,0.0,0.0,53,0.00,,---,0.00,VWS V14.01,2013-02-01 10:06:00,
2013-02-01 05:11:00,40.5,24.3,29.81,NNE,19,0.0,0.0,52,0.00,,---,0.00,VWS V14.01,2013-02-01 10:11:00,
2013-02-01 05:16:00,40.6,24.4,29.81,NNW,342,0.0,0.0,52,0.00,,---,0.00,VWS V14.01,2013-02-01 10:16:00,
2013-02-01 05:21:00,40.6,24.4,29.81,NNW,348,0.0,0.0,52,0.00,,---,0.00,VWS V14.01,2013-02-01 10:21:00,
2013-02-01 05:26:00,40.9,24.6,29.81,North,360,0.0,0.0,52,0.00,,---,0.00,VWS V14.01,2013-02-01 10:26:00,
2013-02-01 05:30:00,40.2,24.5,29.81,North,5,0.0,0.0,53,0.00,,---,0.00,VWS V14.01,2013-02-01 10:30:00,
2013-02-01 05:31:00,41.2,24.9,29.81,NW,318,0.0,10.0,52,0.00,,---,0.00,VWS V14.01,2013-02-01 10:31:00,
2013-02-01 05:36:00,41.3,24.5,29.81,NNW,331,0.0,10.0,51,0.00,,---,0.00,VWS V14.01,2013-02-01 10:36:00,
2013-02-01 05:41:00,41.3,24.5,29.81,NW,318,0.0,10.0,51,0.00,,---,0.00,VWS V14.01,2013-02-01 10:41:00,
2013-02-01 05:46:00,41.5,24.7,29.82,NNW,340,0.0,0.0,51,0.00,,---,0.00,VWS V14.01,2013-02-01 10:46:00,
2013-02-01 05:51:00,41.6,24.8,29.82,NNW,333,0.0,0.0,51,0.00,,---,0.00,VWS V14.01,2013-02-01 10:51:00,
2013-02-01 05:56:00,41.6,24.8,29.82,North,5,0.0,0.0,51,0.00,,---,0.00,VWS V14.01,2013-02-01 10:56:00,
2013-02-01 06:00:00,40.6,24.8,29.81,NW,313,0.0,0.0,53,0.00,,---,0.00,VWS V14.01,2013-02-01 11:00:00,
2013-02-01 06:01:00,41.6,24.8,29.83,North,355,0.0,0.0,51,0.00,,---,0.00,VWS V14.01,2013-02-01 11:01:00,
2013-02-01 06:06:00,41.6,24.8,29.83,NNW,346,0.0,0.0,51,0.00,,---,0.00,VWS V14.01,2013-02-01 11:06:00,
2013-02-01 06:11:00,41.6,24.8,29.83,NNW,342,0.0,0.0,51,0.00,,---,0.00,VWS V14.01,2013-02-01 11:11:00,
2013-02-01 06:16:00,41.8,25.0,29.83,NNE,30,0.0,0.0,51,0.00,,---,0.00,VWS V14.01,2013-02-01 11:16:00,
2013-02-01 06:21:00,41.8,25.0,29.83,NNE,14,0.0,0.0,51,0.00,,---,0.00,VWS V14.01,2013-02-01 11:21:00,
2013-02-01 06:26:00,41.6,25.3,29.83,North,355,0.0,0.0,52,0.00,,---,0.00,VWS V14.01,2013-02-01 11:26:00,
2013-02-01 06:30:00,41.3,24.5,29.82,NNW,328,0.0,10.0,51,0.00,,---,0.00,VWS V14.01,2013-02-01 11:30:00,
2013-02-01 06:31:00,41.5,25.2,29.84,North,360,0.0,0.0,52,0.00,,---,0.00,VWS V14.01,2013-02-01 11:31:00,
2013-02-01 06:36:00,41.5,25.2,29.84,NNE,24,0.0,0.0,52,0.00,,---,0.00,VWS V14.01,2013-02-01 11:36:00,
2013-02-01 06:41:00,41.5,25.2,29.84,North,9,0.0,0.0,52,0.00,,---,0.00,VWS V14.01,2013-02-01 11:41:00,
2013-02-01 06:46:00,41.5,25.2,29.85,NNE,21,0.0,0.0,52,0.00,,---,0.00,VWS V14.01,2013-02-01 11:46:00,
2013-02-01 06:51:00,41.3,25.0,29.85,NNE,14,0.0,0.0,52,0.00,,---,0.00,VWS V14.01,2013-02-01 11:51:00,
2013-02-01 06:56:00,41.3,25.0,29.85,NNE,16,0.0,0.0,52,0.00,,---,0.00,VWS V14.01,2013-02-01 11:56:00,
2013-02-01 07:00:00,41.6,24.8,29.83,North,355,0.0,0.0,51,0.00,,---,0.00,VWS V14.01,2013-02-01 12:00:00,
2013-02-01 07:01:00,41.2,24.9,29.87,North,10,0.0,0.0,52,0.00,,---,0.00,VWS V14.01,2013-02-01 12:01:00,
2013-02-01 07:06:00,41.2,25.4,29.87,NNE,26,0.0,0.0,53,0.00,,---,0.00,VWS V14.01,2013-02-01 12:06:00,
2013-02-01 07:11:00,41.1,25.3,29.87,NNE,16,1.0,5.0,53,0.00,,---,0.00,VWS V14.01,2013-02-01 12:11:00,
2013-02-01 07:16:00,40.9,25.5,29.88,North,9,2.0,5.0,54,0.00,,---,0.00,VWS V14.01,2013-02-01 12:16:00,
2013-02-01 07:21:00,40.8,25.5,29.88,North,5,3.0,7.0,54,0.00,,---,0.00,VWS V14.01,2013-02-01 12:21:00,
2013-02-01 07:26:00,40.6,25.7,29.88,NNE,20,3.0,7.0,55,0.00,,---,0.00,VWS V14.01,2013-02-01 12:26:00,
2013-02-01 07:30:00,41.5,25.2,29.85,North,10,0.0,0.0,52,0.00,,---,0.00,VWS V14.01,2013-02-01 12:30:00,
2013-02-01 07:31:00,40.6,25.7,29.89,NNE,22,0.0,13.0,55,0.00,,---,0.00,VWS V14.01,2013-02-01 12:31:00,
2013-02-01 07:36:00,40.8,25.9,29.89,North,360,0.0,13.0,55,0.00,,---,0.00,VWS V14.01,2013-02-01 12:36:00,
2013-02-01 07:41:00,40.8,25.9,29.89,NNE,28,0.0,13.0,55,0.00,,---,0.00,VWS V14.01,2013-02-01 12:41:00,
2013-02-01 07:46:00,40.9,26.0,29.92,NE,36,0.0,0.0,55,0.00,,---,0.00,VWS V14.01,2013-02-01 12:46:00,
2013-02-01 07:51:00,40.9,26.0,29.92,East,86,0.0,0.0,55,0.00,,---,0.00,VWS V14.01,2013-02-01 12:51:00,
2013-02-01 07:56:00,41.1,26.2,29.92,ENE,71,0.0,0.0,55,0.00,,---,0.00,VWS V14.01,2013-02-01 12:56:00,
2013-02-01 08:00:00,40.9,25.5,29.88,NNE,31,2.0,10.0,54,0.00,,---,0.00,VWS V14.01,2013-02-01 13:00:00,
2013-02-01 08:01:00,40.9,26.4,29.94,ENE,64,0.0,0.0,56,0.00,,---,0.00,VWS V14.01,2013-02-01 13:01:00,
2013-02-01 08:06:00,40.3,26.7,29.94,ENE,73,0.0,0.0,58,0.00,,---,0.00,VWS V14.01,2013-02-01 13:06:00,
2013-02-01 08:11:00,39.9,26.8,29.94,ENE,59,0.0,0.0,59,0.00,,---,0.00,VWS V14.01,2013-02-01 13:11:00,
2013-02-01 08:16:00,39.3,25.4,29.96,ENE,73,4.0,6.0,57,0.00,,---,0.00,VWS V14.01,2013-02-01 13:16:00,
2013-02-01 08:21:00,38.9,25.0,29.96,ENE,59,4.0,9.0,57,0.00,,---,0.00,VWS V14.01,2013-02-01 13:21:00,
2013-02-01 08:26:00,38.6,24.7,29.96,ENE,61,0.0,9.0,57,0.00,,---,0.00,VWS V14.01,2013-02-01 13:26:00,
2013-02-01 08:30:00,40.9,26.0,29.92,NE,37,0.0,13.0,55,0.00,,---,0.00,VWS V14.01,2013-02-01 13:30:00,
2013-02-01 08:31:00,38.3,23.6,29.98,ENE,64,0.0,9.0,55,0.00,,---,0.00,VWS V14.01,2013-02-01 13:31:00,
2013-02-01 08:36:00,38.0,23.7,29.98,East,92,4.0,9.0,56,0.00,,---,0.00,VWS V14.01,2013-02-01 13:36:00,
2013-02-01 08:41:00,38.0,23.7,29.98,NE,51,0.0,9.0,56,0.00,,---,0.00,VWS V14.01,2013-02-01 13:41:00,
2013-02-01 08:46:00,37.9,23.2,30.00,NE,34,0.0,0.0,55,0.00,,---,0.00,VWS V14.01,2013-02-01 13:46:00,
2013-02-01 08:51:00,37.8,20.4,30.00,ENE,71,0.0,0.0,49,0.00,,---,0.00,VWS V14.01,2013-02-01 13:51:00,
2013-02-01 08:56:00,37.8,17.3,30.00,East,92,0.0,0.0,43,0.00,,---,0.00,VWS V14.01,2013-02-01 13:56:00,
2013-02-01 09:00:00,39.6,25.6,29.96,ENE,65,0.0,4.0,57,0.00,,---,0.00,VWS V14.01,2013-02-01 14:00:00,
2013-02-01 09:01:00,37.8,14.5,30.02,East,84,0.0,0.0,38,0.00,,---,0.00,VWS V14.01,2013-02-01 14:01:00,
2013-02-01 09:06:00,37.8,13.9,30.02,NE,53,0.0,0.0,37,0.00,,---,0.00,VWS V14.01,2013-02-01 14:06:00,
2013-02-01 09:11:00,37.9,13.4,30.02,ENE,70,0.0,0.0,36,0.00,,---,0.00,VWS V14.01,2013-02-01 14:11:00,
2013-02-01 09:16:00,37.6,10.4,30.03,ENE,67,0.0,0.0,32,0.00,,---,0.00,VWS V14.01,2013-02-01 14:16:00,
2013-02-01 09:21:00,37.5,7.4,30.03,ENE,66,0.0,0.0,28,0.00,,---,0.00,VWS V14.01,2013-02-01 14:21:00,
2013-02-01 09:26:00,37.2,6.3,30.03,East,82,0.0,7.0,27,0.00,,---,0.00,VWS V14.01,2013-02-01 14:26:00,
2013-02-01 09:30:00,37.9,23.2,30.00,East,80,0.0,9.0,55,0.00,,---,0.00,VWS V14.01,2013-02-01 14:30:00,
2013-02-01 09:31:00,37.3,5.6,30.05,ENE,69,0.0,7.0,26,0.00,,---,0.00,VWS V14.01,2013-02-01 14:31:00,
2013-02-01 09:36:00,37.6,5.0,30.05,East,82,0.0,7.0,25,0.00,,---,0.00,VWS V14.01,2013-02-01 14:36:00,
2013-02-01 09:41:00,37.5,2.1,30.05,ENE,61,0.0,15.0,22,0.00,,---,0.00,VWS V14.01,2013-02-01 14:41:00,
2013-02-01 09:46:00,37.0,0.7,30.06,ENE,61,7.0,20.0,21,0.00,,---,0.00,VWS V14.01,2013-02-01 14:46:00,
2013-02-01 09:51:00,37.0,2.7,30.06,NE,49,0.0,20.0,23,0.00,,---,0.00,VWS V14.01,2013-02-01 14:51:00,
2013-02-01 09:56:00,37.0,2.7,30.06,East,98,0.0,20.0,23,0.00,,---,0.00,VWS V14.01,2013-02-01 14:56:00,
2013-02-01 10:00:00,37.8,12.6,30.03,ENE,65,0.0,0.0,35,0.00,,---,0.00,VWS V14.01,2013-02-01 15:00:00,
2013-02-01 10:01:00,37.0,3.6,30.08,ENE,71,0.0,20.0,24,0.00,,---,0.00,VWS V14.01,2013-02-01 15:01:00,
2013-02-01 10:06:00,37.2,4.6,30.08,ENE,67,0.0,20.0,25,0.00,,---,0.00,VWS V14.01,2013-02-01 15:06:00,
2013-02-01 10:11:00,37.3,5.6,30.08,SSE,148,0.0,20.0,26,0.00,,---,0.00,VWS V14.01,2013-02-01 15:11:00,
2013-02-01 10:15:00,37.3,5.6,30.08,ENE,76,0.0,0.0,26,0.00,,---,0.00,VWS V14.01,2013-02-01 15:15:00,
2013-02-01 10:20:00,37.3,5.6,30.08,ENE,58,0.0,0.0,26,0.00,,---,0.00,VWS V14.01,2013-02-01 15:20:00,
2013-02-01 10:25:00,37.0,3.6,30.08,ENE,67,0.0,15.0,24,0.00,,---,0.00,VWS V14.01,2013-02-01 15:25:00,
2013-02-01 10:30:00,36.9,4.4,30.10,ENE,57,0.0,15.0,25,0.00,,---,0.00,VWS V14.01,2013-02-01 15:30:00,
2013-02-01 10:35:00,36.9,5.2,30.10,NE,42,0.0,15.0,26,0.00,,---,0.00,VWS V14.01,2013-02-01 15:35:00,
2013-02-01 10:40:00,36.9,5.2,30.10,NE,41,0.0,15.0,26,0.00,,---,0.00,VWS V14.01,2013-02-01 15:40:00,
2013-02-01 10:45:00,37.2,7.1,30.11,East,96,0.0,4.0,28,0.00,,---,0.00,VWS V14.01,2013-02-01 15:45:00,
2013-02-01 10:50:00,37.6,8.2,30.11,SE,141,0.0,4.0,29,0.00,,---,0.00,VWS V14.01,2013-02-01 15:50:00,
2013-02-01 10:55:00,37.6,6.7,30.11,East,82,0.0,7.0,27,0.00,,---,0.00,VWS V14.01,2013-02-01 15:55:00,
2013-02-01 11:00:00,37.2,7.1,30.12,East,89,0.0,7.0,28,0.00,,---,0.00,VWS V14.01,2013-02-01 16:00:00,
2013-02-01 11:05:00,37.2,7.1,30.12,East,81,0.0,7.0,28,0.00,,---,0.00,VWS V14.01,2013-02-01 16:05:00,
2013-02-01 11:10:00,36.9,6.1,30.12,East,79,0.0,7.0,27,0.00,,---,0.00,VWS V14.01,2013-02-01 16:10:00,
2013-02-01 11:15:00,36.6,6.6,30.13,East,93,0.0,0.0,28,0.00,,---,0.00,VWS V14.01,2013-02-01 16:15:00,
2013-02-01 11:20:00,36.8,6.0,30.13,East,80,0.0,0.0,27,0.00,,---,0.00,VWS V14.01,2013-02-01 16:20:00,
2013-02-01 11:25:00,36.9,6.8,30.13,ENE,65,0.0,0.0,28,0.00,,---,0.00,VWS V14.01,2013-02-01 16:25:00,
2013-02-01 11:30:00,36.9,6.1,30.13,East,90,0.0,0.0,27,0.00,,---,0.00,VWS V14.01,2013-02-01 16:30:00,
2013-02-01 11:35:00,36.6,4.1,30.13,ENE,66,0.0,0.0,25,0.00,,---,0.00,VWS V14.01,2013-02-01 16:35:00,
2013-02-01 11:40:00,36.8,4.3,30.13,ENE,63,0.0,0.0,25,0.00,,---,0.00,VWS V14.01,2013-02-01 16:40:00,
2013-02-01 11:45:00,36.9,5.2,30.14,East,101,0.0,0.0,26,0.00,,---,0.00,VWS V14.01,2013-02-01 16:45:00,
2013-02-01 11:50:00,36.9,6.1,30.14,ENE,63,0.0,0.0,27,0.00,,---,0.00,VWS V14.01,2013-02-01 16:50:00,
2013-02-01 11:55:00,37.5,5.8,30.14,ENE,63,0.0,0.0,26,0.00,,---,0.00,VWS V14.01,2013-02-01 16:55:00,
2013-02-01 12:00:00,37.6,5.8,30.14,ESE,121,0.0,0.0,26,0.00,,---,0.00,VWS V14.01,2013-02-01 17:00:00,
2013-02-01 12:05:00,37.5,5.8,30.14,East,80,0.0,0.0,26,0.00,,---,0.00,VWS V14.01,2013-02-01 17:05:00,
2013-02-01 12:10:00,37.6,5.8,30.14,ENE,71,0.0,0.0,26,0.00,,---,0.00,VWS V14.01,2013-02-01 17:10:00,
2013-02-01 12:15:00,37.5,4.9,30.14,ENE,72,0.0,0.0,25,0.00,,---,0.00,VWS V14.01,2013-02-01 17:15:00,
2013-02-01 12:20:00,37.2,4.6,30.14,ENE,73,0.0,3.0,25,0.00,,---,0.00,VWS V14.01,2013-02-01 17:20:00,
2013-02-01 12:25:00,37.5,4.0,30.14,NE,56,0.0,3.0,24,0.00,,---,0.00,VWS V14.01,2013-02-01 17:25:00,
2013-02-01 12:30:00,37.2,2.8,30.14,East,96,0.0,3.0,23,0.00,,---,0.00,VWS V14.01,2013-02-01 17:30:00,
2013-02-01 12:35:00,37.2,1.9,30.14,East,94,0.0,3.0,22,0.00,,---,0.00,VWS V14.01,2013-02-01 17:35:00,
2013-02-01 12:40:00,36.9,-0.4,30.14,NE,55,4.0,14.0,20,0.00,,---,0.00,VWS V14.01,2013-02-01 17:40:00,
2013-02-01 12:45:00,36.9,0.6,30.14,ENE,59,0.0,5.0,21,0.00,,---,0.00,VWS V14.01,2013-02-01 17:45:00,
2013-02-01 12:50:00,36.9,-0.4,30.14,ESE,122,0.0,9.0,20,0.00,,---,0.00,VWS V14.01,2013-02-01 17:50:00,
2013-02-01 12:55:00,37.2,0.9,30.14,ENE,74,0.0,9.0,21,0.00,,---,0.00,VWS V14.01,2013-02-01 17:55:00,
2013-02-01 13:00:00,37.5,1.1,30.14,East,95,0.0,9.0,21,0.00,,---,0.00,VWS V14.01,2013-02-01 18:00:00,
2013-02-01 13:05:00,37.6,0.2,30.14,ENE,60,0.0,9.0,20,0.00,,---,0.00,VWS V14.01,2013-02-01 18:05:00,
2013-02-01 13:10:00,37.3,-0.1,30.14,East,84,0.0,9.0,20,0.00,,---,0.00,VWS V14.01,2013-02-01 18:10:00,
2013-02-01 13:15:00,37.2,-0.2,30.14,ENE,72,8.0,9.0,20,0.00,,---,0.00,VWS V14.01,2013-02-01 18:15:00,
2013-02-01 13:20:00,36.9,0.6,30.14,ENE,73,0.0,12.0,21,0.00,,---,0.00,VWS V14.01,2013-02-01 18:20:00,
2013-02-01 13:25:00,36.9,-0.4,30.14,ENE,61,0.0,12.0,20,0.00,,---,0.00,VWS V14.01,2013-02-01 18:25:00,
2013-02-01 13:30:00,36.6,0.4,30.14,ENE,71,4.0,12.0,21,0.00,,---,0.00,VWS V14.01,2013-02-01 18:30:00,
2013-02-01 13:35:00,36.6,1.4,30.14,ENE,69,6.0,12.0,22,0.00,,---,0.00,VWS V14.01,2013-02-01 18:35:00,
2013-02-01 13:40:00,36.9,0.6,30.14,ENE,63,4.0,12.0,21,0.00,,---,0.00,VWS V14.01,2013-02-01 18:40:00,
2013-02-01 13:45:00,37.3,1.0,30.14,ENE,58,8.0,10.0,21,0.00,,---,0.00,VWS V14.01,2013-02-01 18:45:00,
2013-02-01 13:50:00,37.5,2.1,30.14,East,90,3.0,10.0,22,0.00,,---,0.00,VWS V14.01,2013-02-01 18:50:00,
2013-02-01 13:55:00,37.6,2.2,30.14,ENE,75,4.0,10.0,22,0.00,,---,0.00,VWS V14.01,2013-02-01 18:55:00,
2013-02-01 14:00:00,37.6,2.2,30.15,ENE,60,3.0,10.0,22,0.00,,---,0.00,VWS V14.01,2013-02-01 19:00:00,
2013-02-01 14:05:00,37.6,1.2,30.15,NE,55,0.0,10.0,21,0.00,,---,0.00,VWS V14.01,2013-02-01 19:05:00,
2013-02-01 14:10:00,37.8,0.3,30.15,NE,49,4.0,12.0,20,0.00,,---,0.00,VWS V14.01,2013-02-01 19:10:00,
2013-02-01 14:15:00,37.6,1.2,30.15,ENE,75,2.0,6.0,21,0.00,,---,0.00,VWS V14.01,2013-02-01 19:15:00,
2013-02-01 14:20:00,37.5,1.1,30.15,NE,56,0.0,7.0,21,0.00,,---,0.00,VWS V14.01,2013-02-01 19:20:00,
2013-02-01 14:25:00,37.6,0.2,30.15,ENE,67,3.0,10.0,20,0.00,,---,0.00,VWS V14.01,2013-02-01 19:25:00,
2013-02-01 14:30:00,37.5,1.1,30.15,ENE,74,3.0,10.0,21,0.00,,---,0.00,VWS V14.01,2013-02-01 19:30:00,
2013-02-01 14:35:00,37.8,2.4,30.15,ENE,76,9.0,10.0,22,0.00,,---,0.00,VWS V14.01,2013-02-01 19:35:00,
2013-02-01 14:40:00,38.2,0.7,30.15,NNE,25,2.0,10.0,20,0.00,,---,0.00,VWS V14.01,2013-02-01 19:40:00,
2013-02-01 14:45:00,38.3,0.8,30.15,ENE,65,2.0,7.0,20,0.00,,---,0.00,VWS V14.01,2013-02-01 19:45:00,
2013-02-01 14:50:00,38.3,1.8,30.15,ENE,70,1.0,7.0,21,0.00,,---,0.00,VWS V14.01,2013-02-01 19:50:00,
2013-02-01 14:55:00,38.2,1.7,30.15,ENE,71,4.0,7.0,21,0.00,,---,0.00,VWS V14.01,2013-02-01 19:55:00,
2013-02-01 15:00:00,38.0,0.5,30.15,ENE,58,1.0,9.0,20,0.00,,---,0.00,VWS V14.01,2013-02-01 20:00:00,
2013-02-01 15:05:00,38.0,1.5,30.15,ENE,71,3.0,11.0,21,0.00,,---,0.00,VWS V14.01,2013-02-01 20:05:00,
2013-02-01 15:10:00,38.0,1.5,30.15,ENE,65,5.0,11.0,21,0.00,,---,0.00,VWS V14.01,2013-02-01 20:10:00,
2013-02-01 15:15:00,38.0,2.5,30.16,ENE,59,0.0,0.0,22,0.00,,---,0.00,VWS V14.01,2013-02-01 20:15:00,
2013-02-01 15:20:00,38.5,3.0,30.16,East,80,8.0,10.0,22,0.00,,---,0.00,VWS V14.01,2013-02-01 20:20:00,
2013-02-01 15:25:00,38.5,3.9,30.16,East,87,2.0,10.0,23,0.00,,---,0.00,VWS V14.01,2013-02-01 20:25:00,
2013-02-01 15:30:00,38.5,3.0,30.17,NNE,23,1.0,10.0,22,0.00,,---,0.00,VWS V14.01,2013-02-01 20:30:00,
2013-02-01 15:35:00,38.6,3.0,30.17,ENE,59,1.0,10.0,22,0.00,,---,0.00,VWS V14.01,2013-02-01 20:35:00,
2013-02-01 15:40:00,38.9,3.3,30.17,East,95,0.0,10.0,22,0.00,,---,0.00,VWS V14.01,2013-02-01 20:40:00,
2013-02-01 15:45:00,38.9,2.3,30.17,ENE,68,3.0,6.0,21,0.00,,---,0.00,VWS V14.01,2013-02-01 20:45:00,
2013-02-01 15:50:00,38.8,3.2,30.17,ENE,65,3.0,7.0,22,0.00,,---,0.00,VWS V14.01,2013-02-01 20:50:00,
2013-02-01 15:55:00,38.8,4.2,30.17,NE,50,3.0,7.0,23,0.00,,---,0.00,VWS V14.01,2013-02-01 20:55:00,
2013-02-01 16:00:00,38.9,3.3,30.17,ENE,67,2.0,7.0,22,0.00,,---,0.00,VWS V14.01,2013-02-01 21:00:00,
2013-02-01 16:05:00,38.9,3.3,30.17,East,85,2.0,7.0,22,0.00,,---,0.00,VWS V14.01,2013-02-01 21:05:00,
2013-02-01 16:10:00,38.8,4.2,30.17,ENE,61,4.0,7.0,23,0.00,,---,0.00,VWS V14.01,2013-02-01 21:10:00,
2013-02-01 16:15:00,38.8,4.2,30.17,ENE,61,2.0,5.0,23,0.00,,---,0.00,VWS V14.01,2013-02-01 21:15:00,
2013-02-01 16:20:00,38.8,2.2,30.17,NE,42,3.0,6.0,21,0.00,,---,0.00,VWS V14.01,2013-02-01 21:20:00,
2013-02-01 16:25:00,38.6,2.0,30.17,NE,54,1.0,6.0,21,0.00,,---,0.00,VWS V14.01,2013-02-01 21:25:00,
2013-02-01 16:30:00,38.6,2.0,30.17,NE,53,1.0,6.0,21,0.00,,---,0.00,VWS V14.01,2013-02-01 21:30:00,
2013-02-01 16:35:00,38.6,3.0,30.17,NNE,33,3.0,6.0,22,0.00,,---,0.00,VWS V14.01,2013-02-01 21:35:00,
2013-02-01 16:40:00,38.5,3.0,30.17,NE,55,1.0,6.0,22,0.00,,---,0.00,VWS V14.01,2013-02-01 21:40:00,
2013-02-01 16:45:00,38.5,3.9,30.18,ENE,75,4.0,5.0,23,0.00,,---,0.00,VWS V14.01,2013-02-01 21:45:00,
2013-02-01 16:50:00,38.2,3.7,30.18,NE,53,4.0,5.0,23,0.00,,---,0.00,VWS V14.01,2013-02-01 21:50:00,
2013-02-01 16:55:00,37.9,3.4,30.18,ENE,65,0.0,7.0,23,0.00,,---,0.00,VWS V14.01,2013-02-01 21:55:00,
2013-02-01 17:00:00,38.8,4.2,30.17,ENE,61,3.0,7.0,23,0.00,,---,0.00,VWS V14.01,2013-02-01 22:00:00,
2013-02-01 17:01:00,37.6,3.2,30.19,ENE,66,0.0,7.0,23,0.00,,---,0.00,VWS V14.01,2013-02-01 22:01:00,
2013-02-01 17:06:00,37.3,2.0,30.19,ENE,57,0.0,7.0,22,0.00,,---,0.00,VWS V14.01,2013-02-01 22:06:00,
2013-02-01 17:11:00,37.0,2.7,30.19,NE,52,0.0,7.0,23,0.00,,---,0.00,VWS V14.01,2013-02-01 22:11:00,
2013-02-01 17:16:00,36.8,2.5,30.19,NE,51,0.0,3.0,23,0.00,,---,0.00,VWS V14.01,2013-02-01 22:16:00,
2013-02-01 17:21:00,36.5,2.2,30.19,North,9,0.0,7.0,23,0.00,,---,0.00,VWS V14.01,2013-02-01 22:21:00,
2013-02-01 17:26:00,36.2,2.9,30.19,ENE,67,2.0,9.0,24,0.00,,---,0.00,VWS V14.01,2013-02-01 22:26:00,
2013-02-01 17:30:00,38.5,3.9,30.18,ENE,59,2.0,6.0,23,0.00,,---,0.00,VWS V14.01,2013-02-01 22:30:00,
2013-02-01 17:31:00,35.9,1.7,30.20,NE,50,3.0,9.0,23,0.00,,---,0.00,VWS V14.01,2013-02-01 22:31:00,
2013-02-01 17:36:00,35.6,2.4,30.20,ENE,71,1.0,9.0,24,0.00,,---,0.00,VWS V14.01,2013-02-01 22:36:00,
2013-02-01 17:41:00,35.3,2.1,30.20,ENE,67,0.0,9.0,24,0.00,,---,0.00,VWS V14.01,2013-02-01 22:41:00,
2013-02-01 17:46:00,35.2,2.0,30.20,ENE,67,1.0,3.0,24,0.00,,---,0.00,VWS V14.01,2013-02-01 22:46:00,
2013-02-01 17:51:00,35.0,2.8,30.20,ENE,67,0.0,3.0,25,0.00,,---,0.00,VWS V14.01,2013-02-01 22:51:00,
2013-02-01 17:56:00,34.7,2.5,30.20,ENE,67,0.0,3.0,25,0.00,,---,0.00,VWS V14.01,2013-02-01 22:56:00,
2013-02-01 18:00:00,36.9,2.6,30.19,NE,52,3.0,7.0,23,0.00,,---,0.00,VWS V14.01,2013-02-01 23:00:00,
2013-02-01 18:01:00,34.6,3.2,30.21,ENE,67,0.0,3.0,26,0.00,,---,0.00,VWS V14.01,2013-02-01 23:01:00,
2013-02-01 18:06:00,34.4,2.2,30.21,ENE,67,0.0,3.0,25,0.00,,---,0.00,VWS V14.01,2013-02-01 23:06:00,
2013-02-01 18:11:00,34.1,2.8,30.21,ENE,67,0.0,3.0,26,0.00,,---,0.00,VWS V14.01,2013-02-01 23:11:00,
2013-02-01 18:16:00,34.0,2.7,30.22,ENE,67,1.0,1.0,26,0.00,,---,0.00,VWS V14.01,2013-02-01 23:16:00,
2013-02-01 18:21:00,33.8,2.6,30.22,ENE,66,1.0,4.0,26,0.00,,---,0.00,VWS V14.01,2013-02-01 23:21:00,
2013-02-01 18:26:00,33.5,2.3,30.22,ENE,66,0.0,4.0,26,0.00,,---,0.00,VWS V14.01,2013-02-01 23:26:00,
2013-02-01 18:30:00,35.3,2.1,30.20,ENE,67,1.0,9.0,24,0.00,,---,0.00,VWS V14.01,2013-02-01 23:30:00,
2013-02-01 18:31:00,33.4,2.2,30.23,ENE,65,3.0,4.0,26,0.00,,---,0.00,VWS V14.01,2013-02-01 23:31:00,
2013-02-01 18:36:00,33.4,1.4,30.23,ENE,66,1.0,5.0,25,0.00,,---,0.00,VWS V14.01,2013-02-01 23:36:00,
2013-02-01 18:41:00,33.2,1.2,30.23,NE,37,0.0,5.0,25,0.00,,---,0.00,VWS V14.01,2013-02-01 23:41:00,
2013-02-01 18:46:00,33.2,2.0,30.23,NE,37,0.0,2.0,26,0.00,,---,0.00,VWS V14.01,2013-02-01 23:46:00,
2013-02-01 18:51:00,33.1,2.0,30.23,NE,42,0.0,4.0,26,0.00,,---,0.00,VWS V14.01,2013-02-01 23:51:00,
2013-02-01 18:55:00,32.9,1.8,30.23,NE,42,0.0,4.0,26,0.00,,---,0.00,VWS V14.01,2013-02-01 23:55:00,
2013-02-01 19:00:00,32.8,1.7,30.24,NE,42,2.0,4.0,26,0.00,,---,0.00,VWS V14.01,2013-02-02 00:00:00,
2013-02-01 19:05:00,32.7,1.6,30.24,NE,42,0.0,4.0,26,0.00,,---,0.00,VWS V14.01,2013-02-02 00:05:00,
2013-02-01 19:10:00,32.5,2.2,30.24,NE,42,0.0,4.0,27,0.00,,---,0.00,VWS V14.01,2013-02-02 00:10:00,
2013-02-01 19:15:00,32.4,2.2,30.25,NE,42,0.0,0.0,27,0.00,,---,0.00,VWS V14.01,2013-02-02 00:15:00,
2013-02-01 19:20:00,32.2,2.8,30.25,NE,42,0.0,0.0,28,0.00,,---,0.00,VWS V14.01,2013-02-02 00:20:00,
2013-02-01 19:25:00,31.9,1.7,30.25,NE,42,0.0,0.0,27,0.00,,---,0.00,VWS V14.01,2013-02-02 00:25:00,
2013-02-01 19:30:00,31.8,2.4,30.25,NE,42,0.0,0.0,28,0.00,,---,0.00,VWS V14.01,2013-02-02 00:30:00,
2013-02-01 19:35:00,31.6,2.2,30.25,NE,42,0.0,0.0,28,0.00,,---,0.00,VWS V14.01,2013-02-02 00:35:00,
2013-02-01 19:41:00,31.3,2.0,30.25,NE,42,0.0,0.0,28,0.00,,---,0.00,VWS V14.01,2013-02-02 00:41:00,
2013-02-01 19:46:00,31.2,1.9,30.25,NE,42,0.0,0.0,28,0.00,,---,0.00,VWS V14.01,2013-02-02 00:46:00,
2013-02-01 19:51:00,31.0,2.5,30.25,NE,42,0.0,0.0,29,0.00,,---,0.00,VWS V14.01,2013-02-02 00:51:00,
2013-02-01 19:56:00,30.9,3.1,30.25,NE,42,0.0,0.0,30,0.00,,---,0.00,VWS V14.01,2013-02-02 00:56:00,
2013-02-01 20:00:00,32.4,2.2,30.25,NE,42,0.0,4.0,27,0.00,,---,0.00,VWS V14.01,2013-02-02 01:00:00,
2013-02-01 20:01:00,30.7,3.0,30.27,NE,42,0.0,0.0,30,0.00,,---,0.00,VWS V14.01,2013-02-02 01:01:00,
2013-02-01 20:06:00,30.6,2.1,30.27,NE,42,0.0,0.0,29,0.00,,---,0.00,VWS V14.01,2013-02-02 01:06:00,
2013-02-01 20:11:00,30.6,2.1,30.27,NE,42,0.0,0.0,29,0.00,,---,0.00,VWS V14.01,2013-02-02 01:11:00,
2013-02-01 20:16:00,30.4,2.7,30.27,NE,42,0.0,0.0,30,0.00,,---,0.00,VWS V14.01,2013-02-02 01:16:00,
2013-02-01 20:21:00,30.3,1.9,30.27,NE,42,0.0,0.0,29,0.00,,---,0.00,VWS V14.01,2013-02-02 01:21:00,
2013-02-01 20:26:00,30.3,2.6,30.27,NE,42,0.0,1.0,30,0.00,,---,0.00,VWS V14.01,2013-02-02 01:26:00,
2013-02-01 20:30:00,31.3,2.0,30.25,NE,42,0.0,0.0,28,0.00,,---,0.00,VWS V14.01,2013-02-02 01:30:00,
2013-02-01 20:31:00,30.1,3.1,30.27,NE,42,0.0,1.0,31,0.00,,---,0.00,VWS V14.01,2013-02-02 01:31:00,
2013-02-01 20:36:00,30.0,3.7,30.27,NE,42,0.0,1.0,32,0.00,,---,0.00,VWS V14.01,2013-02-02 01:36:00,
2013-02-01 20:41:00,29.8,4.9,30.27,NE,42,0.0,1.0,34,0.00,,---,0.00,VWS V14.01,2013-02-02 01:41:00,
2013-02-01 20:46:00,29.5,4.0,30.28,NE,42,0.0,0.0,33,0.00,,---,0.00,VWS V14.01,2013-02-02 01:46:00,
2013-02-01 20:51:00,29.4,4.5,30.28,NE,42,0.0,0.0,34,0.00,,---,0.00,VWS V14.01,2013-02-02 01:51:00,
2013-02-01 20:56:00,29.3,4.4,30.28,NE,42,0.0,0.0,34,0.00,,---,0.00,VWS V14.01,2013-02-02 01:56:00,
2013-02-01 21:00:00,30.4,2.0,30.27,NE,42,0.0,0.0,29,0.00,,---,0.00,VWS V14.01,2013-02-02 02:00:00,
2013-02-01 21:01:00,29.1,4.9,30.29,NE,42,0.0,0.0,35,0.00,,---,0.00,VWS V14.01,2013-02-02 02:01:00,
2013-02-01 21:06:00,28.8,4.6,30.29,NE,47,0.0,1.0,35,0.00,,---,0.00,VWS V14.01,2013-02-02 02:06:00,
2013-02-01 21:11:00,28.7,4.5,30.29,NE,47,0.0,1.0,35,0.00,,---,0.00,VWS V14.01,2013-02-02 02:11:00,
2013-02-01 21:16:00,28.5,4.3,30.30,NE,47,0.0,0.0,35,0.00,,---,0.00,VWS V14.01,2013-02-02 02:16:00,
2013-02-01 21:21:00,28.4,4.9,30.30,NE,47,0.0,0.0,36,0.00,,---,0.00,VWS V14.01,2013-02-02 02:21:00,
2013-02-01 21:26:00,28.2,5.3,30.30,NE,47,0.0,0.0,37,0.00,,---,0.00,VWS V14.01,2013-02-02 02:26:00,
2013-02-01 21:30:00,29.7,4.1,30.28,NE,42,0.0,1.0,33,0.00,,---,0.00,VWS V14.01,2013-02-02 02:30:00,
2013-02-01 21:31:00,28.1,5.8,30.30,NE,47,0.0,0.0,38,0.00,,---,0.00,VWS V14.01,2013-02-02 02:31:00,
2013-02-01 21:36:00,27.9,5.6,30.30,NE,47,0.0,0.0,38,0.00,,---,0.00,VWS V14.01,2013-02-02 02:36:00,
2013-02-01 21:41:00,27.8,5.5,30.30,NE,47,0.0,0.0,38,0.00,,---,0.00,VWS V14.01,2013-02-02 02:41:00,
2013-02-01 21:46:00,27.5,5.2,30.31,NE,47,0.0,0.0,38,0.00,,---,0.00,VWS V14.01,2013-02-02 02:46:00,
2013-02-01 21:51:00,27.2,5.0,30.31,NE,47,0.0,0.0,38,0.00,,---,0.00,VWS V14.01,2013-02-02 02:51:00,
2013-02-01 21:56:00,27.0,5.3,30.31,NE,47,0.0,0.0,39,0.00,,---,0.00,VWS V14.01,2013-02-02 02:56:00,
2013-02-01 22:00:00,28.5,4.3,30.30,NE,47,0.0,1.0,35,0.00,,---,0.00,VWS V14.01,2013-02-02 03:00:00,
2013-02-01 22:01:00,27.0,5.9,30.31,NE,47,0.0,0.0,40,0.00,,---,0.00,VWS V14.01,2013-02-02 03:01:00,
2013-02-01 22:06:00,26.9,5.3,30.31,NE,47,0.0,2.0,39,0.00,,---,0.00,VWS V14.01,2013-02-02 03:06:00,
2013-02-01 22:11:00,26.9,4.7,30.31,NE,47,0.0,2.0,38,0.00,,---,0.00,VWS V14.01,2013-02-02 03:11:00,
2013-02-01 22:16:00,26.7,5.1,30.31,NE,47,0.0,0.0,39,0.00,,---,0.00,VWS V14.01,2013-02-02 03:16:00,
2013-02-01 22:21:00,26.9,5.8,30.31,NE,47,0.0,1.0,40,0.00,,---,0.00,VWS V14.01,2013-02-02 03:21:00,
2013-02-01 22:26:00,26.9,4.7,30.31,NE,47,0.0,1.0,38,0.00,,---,0.00,VWS V14.01,2013-02-02 03:26:00,
2013-02-01 22:30:00,27.6,4.8,30.31,NE,47,0.0,0.0,37,0.00,,---,0.00,VWS V14.01,2013-02-02 03:30:00,
2013-02-01 22:31:00,27.0,4.8,30.32,NE,47,0.0,1.0,38,0.00,,---,0.00,VWS V14.01,2013-02-02 03:31:00,
2013-02-01 22:36:00,27.0,4.2,30.32,NE,47,2.0,2.0,37,0.00,,---,0.00,VWS V14.01,2013-02-02 03:36:00,
2013-02-01 22:41:00,27.2,5.0,30.32,NE,47,0.0,2.0,38,0.00,,---,0.00,VWS V14.01,2013-02-02 03:41:00,
2013-02-01 22:46:00,27.0,4.8,30.32,NE,47,0.0,0.0,38,0.00,,---,0.00,VWS V14.01,2013-02-02 03:46:00,
2013-02-01 22:51:00,27.0,4.8,30.32,NE,47,0.0,0.0,38,0.00,,---,0.00,VWS V14.01,2013-02-02 03:51:00,
2013-02-01 22:56:00,27.0,4.8,30.32,NE,47,0.0,0.0,38,0.00,,---,0.00,VWS V14.01,2013-02-02 03:56:00,
2013-02-01 23:00:00,26.7,5.6,30.31,NE,47,0.0,2.0,40,0.00,,---,0.00,VWS V14.01,2013-02-02 04:00:00,
2013-02-01 23:01:00,26.9,5.3,30.32,NE,47,0.0,0.0,39,0.00,,---,0.00,VWS V14.01,2013-02-02 04:01:00,
2013-02-01 23:06:00,26.7,5.1,30.32,NE,47,0.0,0.0,39,0.00,,---,0.00,VWS V14.01,2013-02-02 04:06:00,
2013-02-01 23:11:00,26.6,6.1,30.32,NE,47,0.0,0.0,41,0.00,,---,0.00,VWS V14.01,2013-02-02 04:11:00,
2013-02-01 23:16:00,26.4,5.9,30.32,NE,47,0.0,0.0,41,0.00,,---,0.00,VWS V14.01,2013-02-02 04:16:00,
2013-02-01 23:21:00,26.3,5.8,30.32,NE,47,0.0,0.0,41,0.00,,---,0.00,VWS V14.01,2013-02-02 04:21:00,
2013-02-01 23:26:00,26.1,5.6,30.32,NE,47,0.0,0.0,41,0.00,,---,0.00,VWS V14.01,2013-02-02 04:26:00,
2013-02-01 23:30:00,27.2,5.0,30.32,NE,47,0.0,2.0,38,0.00,,---,0.00,VWS V14.01,2013-02-02 04:30:00,
2013-02-01 23:31:00,26.0,5.5,30.32,NE,47,0.0,0.0,41,0.00,,---,0.00,VWS V14.01,2013-02-02 04:31:00,
2013-02-01 23:36:00,26.0,6.1,30.32,NE,47,0.0,0.0,42,0.00,,---,0.00,VWS V14.01,2013-02-02 04:36:00,
2013-02-01 23:41:00,25.8,5.9,30.32,NE,47,0.0,0.0,42,0.00,,---,0.00,VWS V14.01,2013-02-02 04:41:00,
2013-02-01 23:46:00,25.7,6.3,30.32,NE,47,0.0,0.0,43,0.00,,---,0.00,VWS V14.01,2013-02-02 04:46:00,
2013-02-01 23:51:00,25.6,6.2,30.32,NE,47,0.0,0.0,43,0.00,,---,0.00,VWS V14.01,2013-02-02 04:51:00,
2013-02-01 23:56:00,25.4,6.0,30.32,NE,47,0.0,0.0,43,0.00,,---,0.00,VWS V14.01,2013-02-02 04:56:00,